Time;durP1;ratioP1;P1;durP2;ratioP2;P2;SDS_P1;SDS_P2;PMS_P1;PMS_P2;Temp;Humidity;BMP_temperature;BMP_pressure;BME280_temperature;BME280_humidity;BME280_pressure;Samples;Min_cycle;Max_cycle;Signal;HPM_P1;HPM_P2
2022/08/11 00:00:00;;;;;;;5.40;3.67;;;25.90;43.80;;;;;;5023207;28;20516;-79
2022/08/11 00:02:36;;;;;;;4.70;4.30;;;25.90;43.10;;;;;;5019458;28;20995;-78
2022/08/11 00:05:08;;;;;;;4.23;3.57;;;25.80;43.20;;;;;;5025688;28;20443;-78
2022/08/11 00:07:44;;;;;;;4.70;4.10;;;25.80;43.40;;;;;;5022774;28;20462;-79
2022/08/11 00:10:13;;;;;;;4.20;3.60;;;25.80;43.40;;;;;;5022226;28;20556;-77
2022/08/11 00:12:41;;;;;;;5.80;3.47;;;25.80;43.40;;;;;;5019777;28;20450;-78
2022/08/11 00:15:08;;;;;;;3.93;3.63;;;25.80;43.50;;;;;;5021507;28;20436;-78
2022/08/11 00:17:35;;;;;;;4.30;3.70;;;25.70;43.50;;;;;;5021826;28;20618;-77
2022/08/11 00:20:10;;;;;;;4.00;3.60;;;25.70;43.60;;;;;;5020020;28;20440;-77
2022/08/11 00:22:40;;;;;;;4.07;3.67;;;25.60;43.70;;;;;;5020577;28;20439;-79
2022/08/11 00:25:18;;;;;;;6.87;3.83;;;25.60;43.60;;;;;;5021254;28;20451;-77
2022/08/11 00:27:45;;;;;;;6.13;4.17;;;25.60;43.60;;;;;;5021920;28;21135;-76
2022/08/11 00:30:13;;;;;;;5.23;4.20;;;25.60;43.50;;;;;;5019333;28;21051;-76
2022/08/11 00:32:42;;;;;;;6.00;3.57;;;25.60;43.50;;;;;;5023595;28;20523;-77
2022/08/11 00:35:14;;;;;;;5.33;4.93;;;25.60;43.80;;;;;;5021842;28;20481;-78
2022/08/11 00:37:47;;;;;;;3.93;3.63;;;25.50;43.60;;;;;;5021853;28;20462;-78
2022/08/11 00:40:37;;;;;;;4.70;3.60;;;25.50;43.70;;;;;;5020025;28;20436;-77
2022/08/11 00:43:25;;;;;;;8.50;3.57;;;25.50;43.70;;;;;;5018032;28;20548;-77
2022/08/11 00:46:26;;;;;;;5.30;3.50;;;25.50;43.80;;;;;;5024487;28;20447;-76
2022/08/11 00:49:00;;;;;;;7.73;4.80;;;25.40;44.10;;;;;;5019822;28;20478;-76
2022/08/11 00:51:51;;;;;;;4.57;4.17;;;25.40;44.10;;;;;;5023436;28;20435;-77
2022/08/11 00:54:34;;;;;;;5.20;3.87;;;25.40;44.20;;;;;;5016514;28;20439;-76
2022/08/11 00:57:38;;;;;;;5.60;3.53;;;25.30;44.40;;;;;;5019040;28;20451;-76
2022/08/11 01:00:18;;;;;;;7.73;3.67;;;25.20;44.50;;;;;;5015764;28;20438;-76
2022/08/11 01:03:11;;;;;;;4.20;3.80;;;25.20;44.50;;;;;;5020028;28;21271;-77
2022/08/11 01:06:21;;;;;;;5.30;3.90;;;25.10;44.70;;;;;;5017209;28;20840;-77
2022/08/11 01:09:08;;;;;;;4.63;3.43;;;25.00;44.70;;;;;;5017467;28;20459;-77
2022/08/11 01:12:04;;;;;;;4.60;3.90;;;25.00;44.80;;;;;;5021593;28;21002;-77
2022/08/11 01:14:49;;;;;;;4.17;3.77;;;25.00;44.80;;;;;;5021318;28;20454;-77
2022/08/11 01:17:42;;;;;;;3.90;3.60;;;25.00;44.90;;;;;;5021892;28;20567;-77
2022/08/11 01:20:37;;;;;;;4.30;3.90;;;24.90;45.00;;;;;;5019418;28;20944;-77
2022/08/11 01:23:24;;;;;;;5.77;3.90;;;24.90;44.90;;;;;;5001501;28;20443;-77
2022/08/11 01:26:15;;;;;;;4.30;3.90;;;24.80;45.00;;;;;;5021230;28;20868;-77
2022/08/11 01:28:56;;;;;;;4.20;3.80;;;24.80;45.10;;;;;;5020630;28;20558;-76
2022/08/11 01:31:44;;;;;;;4.40;4.00;;;24.80;45.20;;;;;;5015655;28;20591;-76
2022/08/11 01:34:16;;;;;;;8.87;4.23;;;24.70;45.20;;;;;;5018337;28;20443;-76
2022/08/11 01:36:57;;;;;;;4.20;3.80;;;24.80;45.30;;;;;;5015478;28;20979;-76
2022/08/11 01:39:42;;;;;;;3.83;3.50;;;24.70;45.30;;;;;;5017723;28;20454;-76
2022/08/11 01:45:49;;;;;;;5.23;4.00;;;24.70;45.50;;;;;;5021763;28;21025;-77
2022/08/11 01:48:36;;;;;;;4.50;4.10;;;24.60;45.50;;;;;;5017280;28;20462;-76
2022/08/11 01:51:14;;;;;;;5.13;4.50;;;24.60;45.50;;;;;;5031731;28;20448;-77
2022/08/11 01:53:58;;;;;;;4.20;3.80;;;24.50;45.50;;;;;;5015443;28;20450;-77
2022/08/11 01:56:37;;;;;;;3.70;3.40;;;24.50;45.60;;;;;;5020070;28;22428;-77
2022/08/11 01:59:09;;;;;;;4.40;4.00;;;24.50;45.70;;;;;;5018735;28;20438;-78
2022/08/11 02:02:02;;;;;;;6.30;3.80;;;24.50;45.80;;;;;;5017851;28;20528;-78
2022/08/11 02:04:48;;;;;;;5.10;3.90;;;24.40;45.90;;;;;;5019297;28;20527;-77
2022/08/11 02:07:37;;;;;;;4.70;4.30;;;24.40;45.90;;;;;;5018748;28;20463;-78
2022/08/11 02:13:48;;;;;;;5.00;3.90;;;24.30;45.90;;;;;;5019508;28;21154;-77
2022/08/11 02:16:17;;;;;;;4.97;4.57;;;24.30;46.10;;;;;;5027122;28;20933;-79
2022/08/11 02:24:48;;;;;;;4.40;3.50;;;24.20;46.40;;;;;;5022149;28;20446;-78
2022/08/11 02:27:21;;;;;;;4.77;4.27;;;24.20;46.60;;;;;;5037977;28;20617;-77
2022/08/11 02:30:06;;;;;;;4.60;4.20;;;24.10;46.50;;;;;;5035831;28;20770;-77
2022/08/11 02:35:46;;;;;;;7.83;3.87;;;24.10;46.70;;;;;;5017857;28;20469;-79
2022/08/11 02:38:29;;;;;;;4.27;3.87;;;24.10;46.80;;;;;;5014351;28;20476;-79
2022/08/11 02:44:19;;;;;;;8.63;4.50;;;24.00;47.10;;;;;;5023215;28;20446;-78
2022/08/11 02:47:27;;;;;;;4.00;3.70;;;24.00;47.10;;;;;;5015333;28;20941;-78
2022/08/11 02:50:22;;;;;;;4.50;4.10;;;23.90;47.10;;;;;;5015551;28;21202;-78
2022/08/11 02:53:23;;;;;;;4.90;4.10;;;23.80;47.20;;;;;;5020123;28;21368;-78
2022/08/11 02:56:10;;;;;;;5.37;4.43;;;23.80;47.30;;;;;;5018035;28;20512;-77
2022/08/11 03:01:51;;;;;;;4.40;4.07;;;23.70;47.40;;;;;;5016482;28;21016;-76
2022/08/11 03:04:34;;;;;;;4.40;4.00;;;23.60;47.50;;;;;;5018031;28;20440;-77
2022/08/11 03:07:07;;;;;;;3.83;3.53;;;23.60;47.50;;;;;;5018522;28;20545;-76
2022/08/11 03:09:36;;;;;;;4.03;3.63;;;23.60;47.70;;;;;;5017380;28;20529;-76
2022/08/11 03:18:01;;;;;;;7.00;4.50;;;23.50;47.80;;;;;;5019777;28;20494;-77
2022/08/11 03:20:44;;;;;;;4.70;4.30;;;23.50;48.00;;;;;;5018274;28;21040;-75
2022/08/11 03:23:36;;;;;;;6.83;3.93;;;23.40;48.00;;;;;;5015437;28;20439;-76
2022/08/11 03:26:27;;;;;;;6.37;4.27;;;23.40;48.10;;;;;;5017866;28;20442;-77
2022/08/11 03:28:55;;;;;;;4.90;3.90;;;23.40;48.20;;;;;;5021821;28;20470;-77
2022/08/11 03:31:31;;;;;;;5.30;4.43;;;23.30;48.20;;;;;;5019542;28;20439;-78
2022/08/11 03:34:06;;;;;;;4.57;4.07;;;23.30;48.30;;;;;;5015512;28;20439;-76
2022/08/11 03:36:46;;;;;;;7.07;4.20;;;23.30;48.40;;;;;;5019818;28;20451;-78
2022/08/11 03:39:12;;;;;;;5.20;4.70;;;23.20;48.40;;;;;;5033215;28;20445;-78
2022/08/11 03:41:51;;;;;;;4.80;4.40;;;23.20;48.50;;;;;;5019777;28;20435;-78
2022/08/11 03:44:54;;;;;;;4.97;4.57;;;23.20;49.20;;;;;;5020339;28;20439;-78
2022/08/11 03:47:45;;;;;;;6.73;4.43;;;23.20;48.80;;;;;;5022579;28;20462;-77
2022/08/11 03:50:41;;;;;;;5.47;4.60;;;23.10;49.00;;;;;;5018410;28;20499;-77
2022/08/11 03:53:38;;;;;;;5.10;4.60;;;23.10;49.00;;;;;;5020377;28;20809;-78
2022/08/11 03:56:13;;;;;;;5.93;4.17;;;23.10;49.00;;;;;;5021791;28;20447;-78
2022/08/11 03:59:03;;;;;;;8.20;4.40;;;23.10;49.10;;;;;;5015600;28;20469;-78
2022/08/11 04:01:40;;;;;;;4.87;4.00;;;23.10;49.10;;;;;;5019089;28;20522;-78
2022/08/11 04:04:35;;;;;;;4.30;4.00;;;23.10;49.10;;;;;;5016080;28;20946;-78
2022/08/11 04:07:28;;;;;;;4.67;4.27;;;23.10;49.20;;;;;;5004895;28;21067;-78
2022/08/11 04:10:13;;;;;;;4.50;4.10;;;23.00;49.10;;;;;;5016195;28;20477;-77
2022/08/11 04:13:27;;;;;;;7.27;5.00;;;23.00;49.10;;;;;;5015095;28;20510;-77
2022/08/11 04:16:15;;;;;;;4.30;3.90;;;23.00;49.20;;;;;;5015647;28;20451;-78
2022/08/11 04:18:49;;;;;;;4.13;3.83;;;23.00;49.20;;;;;;5012868;28;20447;-78
2022/08/11 04:21:48;;;;;;;4.37;3.97;;;23.00;49.30;;;;;;5020594;28;20458;-78
2022/08/11 04:24:35;;;;;;;6.30;4.13;;;23.00;49.40;;;;;;5024614;28;20450;-79
2022/08/11 04:27:10;;;;;;;5.47;4.97;;;22.90;49.40;;;;;;5030253;28;20454;-78
2022/08/11 04:29:55;;;;;;;4.60;4.10;;;22.90;49.50;;;;;;5033840;28;21192;-79
2022/08/11 04:32:44;;;;;;;4.73;4.33;;;22.90;49.60;;;;;;5034445;28;20435;-79
2022/08/11 04:35:42;;;;;;;4.70;4.30;;;22.80;49.60;;;;;;5038012;28;20813;-78
2022/08/11 04:38:26;;;;;;;8.30;4.77;;;22.80;49.70;;;;;;5034258;28;20431;-77
2022/08/11 04:41:13;;;;;;;4.97;3.93;;;22.80;49.60;;;;;;5027322;28;20435;-78
2022/08/11 04:44:15;;;;;;;4.40;4.00;;;22.80;49.60;;;;;;5032060;28;20992;-79
2022/08/11 05:03:02;;;;;;;5.70;4.67;;;22.70;50.00;;;;;;5031306;28;20672;-79
2022/08/11 05:05:52;;;;;;;4.70;4.30;;;22.70;49.90;;;;;;5019668;28;20431;-80
2022/08/11 05:08:48;;;;;;;9.00;4.80;;;22.70;49.90;;;;;;5018889;28;20462;-79
2022/08/11 05:11:38;;;;;;;4.80;4.40;;;22.70;49.90;;;;;;5025536;28;20466;-78
2022/08/11 05:34:55;;;;;;;5.33;4.47;;;22.80;50.10;;;;;;5018278;28;20502;-77
2022/08/11 05:37:31;;;;;;;4.83;4.30;;;22.80;50.10;;;;;;5021965;28;20501;-77
2022/08/11 05:57:04;;;;;;;5.43;4.50;;;22.80;50.40;;;;;;5024209;28;20536;-78
2022/08/11 05:59:31;;;;;;;6.33;4.40;;;22.80;50.50;;;;;;5018361;28;20443;-77
2022/08/11 06:02:06;;;;;;;4.97;4.50;;;22.90;50.50;;;;;;5034976;28;20471;-76
2022/08/11 06:04:33;;;;;;;5.23;4.83;;;22.90;50.50;;;;;;5018061;28;20443;-76
2022/08/11 06:07:05;;;;;;;10.83;4.60;;;23.00;50.60;;;;;;5013492;28;20506;-76
2022/08/11 06:09:35;;;;;;;5.23;4.30;;;23.00;50.60;;;;;;5021462;28;20481;-76
2022/08/11 06:12:26;;;;;;;6.80;4.50;;;23.00;50.70;;;;;;5018869;28;20435;-78
2022/08/11 06:15:00;;;;;;;5.70;4.70;;;23.10;50.80;;;;;;5022575;28;20548;-77
2022/08/11 06:17:31;;;;;;;5.40;4.90;;;23.10;50.80;;;;;;5014745;28;20583;-77
2022/08/11 06:20:04;;;;;;;5.30;4.60;;;23.10;50.90;;;;;;5019965;28;20435;-77
2022/08/11 06:22:31;;;;;;;9.77;6.30;;;23.10;51.00;;;;;;5018371;28;20823;-77
2022/08/11 06:25:03;;;;;;;4.90;4.00;;;23.10;51.10;;;;;;5019022;28;20493;-77
2022/08/11 06:27:32;;;;;;;5.03;4.00;;;23.20;51.20;;;;;;5019388;28;20541;-77
2022/08/11 06:29:59;;;;;;;4.50;4.13;;;23.20;51.20;;;;;;5017730;28;20533;-77
2022/08/11 06:32:31;;;;;;;4.50;4.10;;;23.20;51.20;;;;;;5020645;28;20428;-77
2022/08/11 06:35:03;;;;;;;5.20;4.70;;;23.20;51.30;;;;;;5020457;28;20953;-77
2022/08/11 06:37:44;;;;;;;5.10;4.57;;;23.20;51.20;;;;;;5017309;28;20450;-77
2022/08/11 06:40:33;;;;;;;4.83;4.43;;;23.30;51.30;;;;;;5017224;28;20434;-78
2022/08/11 06:43:20;;;;;;;6.00;4.90;;;23.30;51.30;;;;;;5014023;28;21200;-82
2022/08/11 06:46:04;;;;;;;6.70;4.10;;;23.30;51.10;;;;;;5018694;28;20784;-77
2022/08/11 06:48:33;;;;;;;5.90;4.70;;;23.40;51.20;;;;;;5019536;28;20427;-77
2022/08/11 06:51:12;;;;;;;7.50;4.30;;;23.40;51.10;;;;;;5021526;28;20508;-81
2022/08/11 06:54:00;;;;;;;5.97;4.40;;;23.50;51.00;;;;;;5022364;28;21110;-81
2022/08/11 07:02:20;;;;;;;5.43;4.60;;;23.70;50.80;;;;;;5019710;28;20446;-80
2022/08/11 07:05:20;;;;;;;4.57;4.17;;;23.70;51.10;;;;;;5022443;28;21152;-80
2022/08/11 07:17:25;;;;;;;5.00;4.60;;;24.00;50.80;;;;;;5019132;28;21230;-80
2022/08/11 07:31:13;;;;;;;4.50;4.10;;;24.30;50.80;;;;;;5012380;28;20445;-81
2022/08/11 07:33:56;;;;;;;9.23;4.30;;;24.30;50.70;;;;;;5022716;28;20518;-80
2022/08/11 07:36:27;;;;;;;4.70;4.30;;;24.40;51.30;;;;;;5019612;28;20513;-80
2022/08/11 07:38:55;;;;;;;7.77;5.07;;;24.40;50.70;;;;;;5017957;28;20447;-79
2022/08/11 07:41:23;;;;;;;5.10;4.40;;;24.50;50.70;;;;;;5019542;28;21010;-79
2022/08/11 07:44:07;;;;;;;4.30;3.90;;;24.50;50.70;;;;;;5019729;28;20501;-79
2022/08/11 07:52:27;;;;;;;6.63;4.23;;;24.70;50.50;;;;;;5019384;28;20469;-79
2022/08/11 07:54:55;;;;;;;7.97;5.70;;;24.80;50.50;;;;;;5019742;28;20485;-81
2022/08/11 08:19:23;;;;;;;5.53;4.60;;;25.30;49.90;;;;;;5024204;28;20457;-77
2022/08/11 08:21:49;;;;;;;4.90;4.40;;;25.40;49.80;;;;;;5022866;28;21106;-78
2022/08/11 08:24:18;;;;;;;4.70;4.30;;;25.50;49.80;;;;;;5022832;28;20450;-77
2022/08/11 08:26:59;;;;;;;5.30;4.80;;;25.60;49.50;;;;;;5022882;28;21144;-78
2022/08/11 08:32:15;;;;;;;5.17;4.63;;;25.60;49.30;;;;;;5019524;28;20480;-77
2022/08/11 08:34:41;;;;;;;7.97;4.80;;;25.70;49.30;;;;;;5022585;28;20481;-77
2022/08/11 08:37:07;;;;;;;7.50;4.40;;;25.80;49.30;;;;;;5019528;28;20443;-77
2022/08/11 08:39:36;;;;;;;7.00;4.47;;;25.80;49.20;;;;;;5017416;28;20435;-77
2022/08/11 08:42:06;;;;;;;4.80;4.40;;;26.00;49.10;;;;;;5017513;28;20527;-76
2022/08/11 08:44:34;;;;;;;7.57;4.40;;;26.10;48.80;;;;;;5019927;28;20422;-76
2022/08/11 08:47:04;;;;;;;5.90;4.40;;;26.10;48.80;;;;;;5018003;28;20550;-78
2022/08/11 08:49:38;;;;;;;7.47;4.57;;;26.20;48.90;;;;;;5022958;28;20525;-78
2022/08/11 08:52:06;;;;;;;4.97;4.47;;;26.30;48.90;;;;;;5019602;28;20463;-77
2022/08/11 08:54:41;;;;;;;5.00;4.60;;;26.30;48.70;;;;;;5018414;28;20874;-78
2022/08/11 08:57:08;;;;;;;5.67;4.40;;;26.40;48.40;;;;;;5022213;28;21150;-81
2022/08/11 08:59:40;;;;;;;6.57;4.30;;;26.50;48.20;;;;;;5025149;28;20438;-81
2022/08/11 09:02:10;;;;;;;4.43;4.00;;;26.60;47.80;;;;;;5021112;28;20438;-82
2022/08/11 09:04:36;;;;;;;5.27;4.70;;;26.70;47.10;;;;;;5021793;28;20443;-81
2022/08/11 09:07:14;;;;;;;5.47;5.07;;;26.80;47.20;;;;;;5024687;28;20451;-80
2022/08/11 09:09:58;;;;;;;5.60;5.10;;;26.80;47.30;;;;;;5021690;28;21454;-80
2022/08/11 09:12:33;;;;;;;5.23;4.60;;;26.90;47.50;;;;;;5016354;28;20435;-80
2022/08/11 09:15:02;;;;;;;4.93;4.43;;;27.00;47.40;;;;;;5024855;28;20432;-79
2022/08/11 09:17:48;;;;;;;5.63;5.03;;;27.00;47.30;;;;;;5023361;28;20447;-80
2022/08/11 09:20:21;;;;;;;7.00;4.20;;;27.10;47.30;;;;;;5019015;28;20461;-79
2022/08/11 09:28:20;;;;;;;8.40;4.20;;;27.20;47.10;;;;;;5021486;28;20543;-78
2022/08/11 09:30:59;;;;;;;4.60;4.20;;;27.30;47.00;;;;;;5019314;28;20473;-79
2022/08/11 09:33:28;;;;;;;4.67;4.23;;;27.40;46.70;;;;;;5019373;28;20423;-79
2022/08/11 09:35:54;;;;;;;6.43;4.67;;;27.40;46.50;;;;;;5018933;28;20446;-80
2022/08/11 09:41:09;;;;;;;5.20;4.80;;;27.50;46.70;;;;;;5021793;28;20496;-80
2022/08/11 09:46:27;;;;;;;5.30;4.77;;;27.60;46.10;;;;;;5019254;28;20493;-78
2022/08/11 09:48:55;;;;;;;5.13;4.63;;;27.70;45.90;;;;;;5020669;28;20431;-78
2022/08/11 09:51:22;;;;;;;5.60;5.10;;;27.70;45.90;;;;;;5018693;28;20436;-78
2022/08/11 09:53:49;;;;;;;5.27;4.77;;;27.80;45.80;;;;;;5019659;28;20439;-81
2022/08/11 09:59:08;;;;;;;6.87;4.67;;;27.80;46.00;;;;;;5019734;28;20814;-80
2022/08/11 10:01:41;;;;;;;9.00;5.20;;;27.90;45.70;;;;;;5017915;28;20462;-80
2022/08/11 10:04:19;;;;;;;4.97;4.60;;;27.90;45.30;;;;;;5019730;28;20452;-81
2022/08/11 10:07:01;;;;;;;5.47;4.90;;;28.00;44.80;;;;;;5014681;28;20494;-79
2022/08/11 10:09:48;;;;;;;5.37;4.87;;;28.00;44.90;;;;;;5019065;28;20536;-79
2022/08/11 10:12:23;;;;;;;7.67;4.33;;;28.10;45.00;;;;;;5015165;28;20447;-79
2022/08/11 10:20:32;;;;;;;6.03;5.47;;;28.20;44.00;;;;;;5016336;28;20540;-74
2022/08/11 10:28:28;;;;;;;6.00;4.50;;;28.40;43.10;;;;;;5014590;28;20571;-74
2022/08/11 10:34:02;;;;;;;4.70;3.87;;;28.60;43.00;;;;;;5016360;28;20443;-75
2022/08/11 10:36:31;;;;;;;5.20;4.33;;;28.60;43.00;;;;;;5014192;28;20467;-75
2022/08/11 10:38:59;;;;;;;5.10;4.23;;;28.70;43.20;;;;;;5015634;28;20432;-76
2022/08/11 10:44:12;;;;;;;4.23;3.93;;;28.80;42.50;;;;;;5016269;28;20558;-75
2022/08/11 10:49:24;;;;;;;5.53;4.00;;;28.90;42.10;;;;;;5009324;28;20466;-75
2022/08/11 11:00:14;;;;;;;5.83;4.10;;;29.00;41.30;;;;;;5016034;28;20853;-75
2022/08/11 11:02:44;;;;;;;4.70;4.30;;;29.10;41.00;;;;;;5015162;28;20817;-75
2022/08/11 11:05:23;;;;;;;5.03;3.93;;;29.20;41.20;;;;;;5016317;28;20455;-74
2022/08/11 11:08:51;;;;;;;6.53;3.60;;;29.30;41.00;;;;;;5013837;28;20466;-75
2022/08/11 11:10:55;;;;;;;3.87;3.57;;;29.30;40.00;;;;;;5015690;28;20479;-76
2022/08/11 11:18:55;;;;;;;4.97;4.00;;;29.60;39.00;;;;;;5014545;28;20546;-76
2022/08/11 11:21:22;;;;;;;4.63;4.20;;;29.70;39.00;;;;;;5015556;28;20552;-76
2022/08/11 11:24:32;;;;;;;4.97;4.47;;;29.70;38.70;;;;;;5014622;28;20455;-75
2022/08/11 11:27:23;;;;;;;4.70;3.60;;;29.80;38.80;;;;;;5016757;28;20465;-75
2022/08/11 11:30:07;;;;;;;3.70;3.40;;;29.90;38.50;;;;;;5012414;28;21044;-75
2022/08/11 11:32:57;;;;;;;3.80;3.40;;;29.90;38.40;;;;;;5016748;28;20413;-75
2022/08/11 11:35:43;;;;;;;4.10;3.80;;;30.10;38.40;;;;;;5016468;28;20478;-75
2022/08/11 11:38:10;;;;;;;4.20;3.63;;;30.10;38.20;;;;;;5015823;28;20573;-74
2022/08/11 11:40:37;;;;;;;4.13;3.80;;;30.20;37.70;;;;;;5015013;28;20517;-75
2022/08/11 11:43:04;;;;;;;4.20;3.80;;;30.20;37.70;;;;;;5018026;28;20518;-74
2022/08/11 11:45:30;;;;;;;6.00;4.03;;;30.30;37.50;;;;;;5019770;28;20424;-75
2022/08/11 11:47:59;;;;;;;4.13;3.73;;;30.40;37.30;;;;;;5019727;28;20429;-76
2022/08/11 11:50:36;;;;;;;3.90;3.60;;;30.50;37.20;;;;;;5014931;28;20217;-75
2022/08/11 11:53:05;;;;;;;4.57;4.17;;;30.60;37.20;;;;;;5017293;28;20449;-75
2022/08/11 11:55:31;;;;;;;4.23;3.83;;;30.70;37.20;;;;;;5020083;28;20528;-75
2022/08/11 12:03:32;;;;;;;3.60;3.30;;;31.20;36.20;;;;;;5019433;28;20869;-75
2022/08/11 12:05:59;;;;;;;4.50;4.00;;;31.40;36.10;;;;;;5021167;28;20496;-75
2022/08/11 12:08:26;;;;;;;4.20;3.80;;;31.60;35.90;;;;;;5018728;28;20824;-75
2022/08/11 12:13:49;;;;;;;4.37;3.20;;;32.20;35.10;;;;;;5020717;28;20820;-75
2022/08/11 12:16:16;;;;;;;3.93;3.60;;;32.50;34.80;;;;;;5019301;28;20414;-74
2022/08/11 12:18:45;;;;;;;4.93;3.80;;;32.90;34.30;;;;;;5020595;28;20818;-74
2022/08/11 12:21:14;;;;;;;4.03;3.73;;;33.20;33.90;;;;;;5037019;28;21140;-74
2022/08/11 12:29:13;;;;;;;3.70;3.40;;;34.00;33.30;;;;;;5020518;28;20662;-75
2022/08/11 12:31:40;;;;;;;3.40;3.20;;;34.30;32.70;;;;;;5018820;28;20425;-75
2022/08/11 12:34:09;;;;;;;3.60;3.30;;;34.50;32.60;;;;;;5018712;28;20410;-75
2022/08/11 12:36:38;;;;;;;4.53;3.60;;;34.50;31.50;;;;;;5020359;28;21513;-75
2022/08/11 12:39:10;;;;;;;4.17;3.80;;;34.60;31.60;;;;;;5019289;28;20509;-75
2022/08/11 12:47:18;;;;;;;7.60;3.37;;;35.20;31.30;;;;;;5018274;28;20500;-75
2022/08/11 12:52:48;;;;;;;3.40;3.10;;;35.50;30.30;;;;;;5021618;28;20488;-75
2022/08/11 12:58:14;;;;;;;4.40;4.00;;;35.70;30.40;;;;;;5021443;28;20410;-75
2022/08/11 12:58:16;;;;;;;4.17;3.77;;;35.80;30.00;;;;;;5018185;28;20429;-75
2022/08/11 13:06:18;;;;;;;4.20;3.63;;;36.10;30.20;;;;;;5016081;28;21371;-74
2022/08/11 13:08:45;;;;;;;4.40;3.70;;;36.40;30.00;;;;;;5016811;28;20497;-74
2022/08/11 13:13:56;;;;;;;3.70;3.40;;;36.70;29.60;;;;;;5014990;28;20439;-75
2022/08/11 13:16:29;;;;;;;6.53;3.73;;;36.70;29.30;;;;;;5012501;28;20447;-75
2022/08/11 13:18:59;;;;;;;3.73;3.43;;;36.80;29.30;;;;;;5013475;28;20435;-75
2022/08/11 13:21:26;;;;;;;4.87;3.67;;;36.80;29.50;;;;;;5019218;28;20801;-75
2022/08/11 13:23:53;;;;;;;3.70;3.40;;;36.90;29.50;;;;;;5017680;28;20443;-75
2022/08/11 13:26:22;;;;;;;6.13;4.10;;;37.00;29.30;;;;;;5019580;28;20442;-75
2022/08/11 13:28:48;;;;;;;3.83;3.30;;;37.10;29.30;;;;;;5020395;28;21043;-75
2022/08/11 13:31:14;;;;;;;3.90;3.60;;;37.30;29.60;;;;;;5013711;28;20451;-75
2022/08/11 13:33:50;;;;;;;4.67;3.63;;;37.50;29.40;;;;;;5015445;28;20870;-75
2022/08/11 13:36:22;;;;;;;3.73;3.43;;;37.60;29.80;;;;;;5017731;28;20280;-75
2022/08/11 13:38:48;;;;;;;3.90;3.60;;;37.90;29.00;;;;;;5017353;28;20529;-75
2022/08/11 13:44:01;;;;;;;4.03;3.50;;;38.30;28.60;;;;;;5016820;28;20439;-75
2022/08/11 13:46:27;;;;;;;4.33;3.93;;;38.50;28.20;;;;;;5015948;28;20969;-75
2022/08/11 13:48:56;;;;;;;3.80;3.07;;;38.80;28.00;;;;;;5032905;28;20798;-75
2022/08/11 13:51:29;;;;;;;5.80;3.60;;;39.00;27.80;;;;;;5014451;28;20538;-75
2022/08/11 13:53:58;;;;;;;3.90;3.60;;;39.30;27.80;;;;;;5017616;28;20432;-75
2022/08/11 13:56:25;;;;;;;3.40;3.10;;;39.40;27.70;;;;;;5016256;28;20453;-75
2022/08/11 13:58:52;;;;;;;4.47;3.27;;;39.60;28.00;;;;;;5015844;28;20875;-74
2022/08/11 14:01:20;;;;;;;3.33;2.77;;;39.90;27.70;;;;;;5015083;28;20417;-75
2022/08/11 14:03:48;;;;;;;5.57;3.40;;;40.00;27.30;;;;;;5020240;28;20436;-75
2022/08/11 14:06:17;;;;;;;12.70;3.70;;;40.20;27.20;;;;;;5016954;28;20548;-75
2022/08/11 14:08:44;;;;;;;4.10;3.70;;;40.50;27.10;;;;;;5019141;28;20477;-75
2022/08/11 14:13:57;;;;;;;3.70;3.40;;;40.90;26.70;;;;;;5016828;28;20433;-74
2022/08/11 14:16:33;;;;;;;3.50;3.20;;;41.10;26.70;;;;;;5020501;28;20435;-75
2022/08/11 14:19:04;;;;;;;5.30;3.10;;;41.40;26.60;;;;;;5018500;28;20415;-74
2022/08/11 14:24:20;;;;;;;5.20;3.40;;;41.80;25.90;;;;;;5018496;28;20881;-75
2022/08/11 14:26:47;;;;;;;3.63;3.23;;;41.90;25.90;;;;;;5016940;28;20462;-75
2022/08/11 14:29:16;;;;;;;3.93;3.63;;;42.30;25.80;;;;;;5018289;28;20474;-75
2022/08/11 14:31:52;;;;;;;3.50;3.20;;;42.50;25.50;;;;;;5017684;28;20435;-75
2022/08/11 14:34:20;;;;;;;5.27;3.30;;;42.80;25.40;;;;;;5015408;28;20964;-75
2022/08/11 14:36:52;;;;;;;3.77;3.00;;;42.90;25.20;;;;;;5013630;28;20458;-75
2022/08/11 14:39:24;;;;;;;5.50;3.50;;;43.40;25.20;;;;;;5017375;28;20437;-75
2022/08/11 14:47:40;;;;;;;3.23;3.03;;;43.90;24.30;;;;;;5016280;28;20458;-75
2022/08/11 14:50:12;;;;;;;3.90;3.50;;;43.70;23.90;;;;;;5019871;28;21116;-75
2022/08/11 14:53:00;;;;;;;5.70;3.53;;;43.80;24.00;;;;;;5016779;28;21500;-75
2022/08/11 14:58:19;;;;;;;3.67;3.37;;;43.90;24.10;;;;;;5016293;28;20477;-75
2022/08/11 15:00:45;;;;;;;4.30;3.20;;;44.00;23.80;;;;;;5015918;28;20431;-74
2022/08/11 15:03:13;;;;;;;3.60;3.30;;;44.00;23.80;;;;;;5017938;28;20430;-75
2022/08/11 15:05:55;;;;;;;3.60;3.30;;;43.90;23.60;;;;;;5016747;28;20415;-75
2022/08/11 15:08:53;;;;;;;2.90;2.70;;;43.70;23.60;;;;;;5019947;28;20447;-75
2022/08/11 15:12:07;;;;;;;3.80;3.10;;;43.40;23.80;;;;;;5020285;28;20979;-75
2022/08/11 15:14:01;;;;;;;3.47;2.93;;;43.20;24.00;;;;;;5016890;28;21042;-75
2022/08/11 15:19:13;;;;;;;3.70;3.40;;;42.80;23.90;;;;;;5016219;28;20621;-75
2022/08/11 15:24:24;;;;;;;4.03;3.60;;;42.20;24.10;;;;;;5015558;28;20495;-75
2022/08/11 15:37:59;;;;;;;3.70;3.40;;;40.90;24.50;;;;;;5011559;28;20531;-75
2022/08/11 15:46:15;;;;;;;3.47;3.17;;;40.40;24.80;;;;;;5016269;28;20946;-75
2022/08/11 15:48:42;;;;;;;5.73;3.40;;;40.10;25.00;;;;;;5016404;28;20923;-75
2022/08/11 15:51:12;;;;;;;5.40;3.43;;;39.80;25.10;;;;;;5020018;28;20873;-75
2022/08/11 15:53:48;;;;;;;4.63;3.90;;;39.70;25.10;;;;;;5021331;28;20482;-75
2022/08/11 15:56:17;;;;;;;8.43;3.80;;;39.10;25.40;;;;;;5012708;28;20443;-75
2022/08/11 16:04:24;;;;;;;3.50;3.20;;;38.50;25.80;;;;;;5019629;28;20452;-75
2022/08/11 16:06:57;;;;;;;4.20;3.60;;;38.30;25.90;;;;;;5016601;28;20480;-75
2022/08/11 16:09:28;;;;;;;4.87;3.10;;;38.30;26.20;;;;;;5013758;28;20471;-75
2022/08/11 16:11:58;;;;;;;6.40;3.30;;;38.20;26.10;;;;;;5016388;28;20455;-75
2022/08/11 16:17:11;;;;;;;3.50;3.20;;;38.00;26.50;;;;;;5015678;28;20457;-74
2022/08/11 16:19:39;;;;;;;3.47;3.17;;;37.90;26.30;;;;;;5017925;28;20445;-75
2022/08/11 16:22:08;;;;;;;9.10;4.00;;;38.00;26.20;;;;;;5020026;28;20432;-74
2022/08/11 16:24:43;;;;;;;3.40;3.10;;;37.80;26.10;;;;;;5021884;28;20435;-75
2022/08/11 16:27:13;;;;;;;3.77;3.10;;;37.80;26.30;;;;;;5020567;28;20507;-74
2022/08/11 16:29:49;;;;;;;3.93;3.20;;;37.60;26.60;;;;;;5022584;28;20536;-75
2022/08/11 16:32:22;;;;;;;3.70;3.40;;;37.50;26.30;;;;;;5020444;28;21174;-74
2022/08/11 16:40:28;;;;;;;7.00;4.40;;;37.20;26.60;;;;;;5016986;28;20518;-75
2022/08/11 16:48:29;;;;;;;3.40;3.10;;;37.00;27.10;;;;;;5020531;28;20561;-75
2022/08/11 16:50:58;;;;;;;3.30;2.93;;;37.00;27.30;;;;;;5019171;28;20476;-75
2022/08/11 16:53:25;;;;;;;4.00;3.50;;;36.90;27.00;;;;;;5022680;28;20427;-75
2022/08/11 16:55:53;;;;;;;4.93;3.60;;;36.80;27.00;;;;;;5022848;28;20435;-75
2022/08/11 17:01:08;;;;;;;4.50;3.20;;;36.60;26.90;;;;;;5020419;28;20459;-74
2022/08/11 17:14:48;;;;;;;5.87;3.63;;;36.10;27.30;;;;;;5022929;28;20438;-75
2022/08/11 17:17:24;;;;;;;3.90;3.60;;;35.90;27.40;;;;;;5020691;28;20482;-74
2022/08/11 17:19:54;;;;;;;5.07;2.87;;;35.80;27.50;;;;;;5018334;28;20406;-75
2022/08/11 17:25:08;;;;;;;4.83;4.13;;;35.40;27.80;;;;;;5018636;28;20541;-75
2022/08/11 17:27:35;;;;;;;4.63;4.23;;;35.30;28.00;;;;;;5016766;28;20455;-75
2022/08/11 17:30:04;;;;;;;5.67;4.00;;;35.10;28.10;;;;;;5014327;28;20978;-74
2022/08/11 17:35:29;;;;;;;5.87;3.73;;;34.90;28.40;;;;;;5017190;28;20426;-73
2022/08/11 17:38:05;;;;;;;6.90;4.03;;;34.70;28.50;;;;;;5020429;28;20776;-74
2022/08/11 17:40:37;;;;;;;5.20;3.67;;;34.60;28.60;;;;;;5015958;28;20525;-74
2022/08/11 17:48:41;;;;;;;4.43;3.33;;;34.10;29.00;;;;;;5016946;28;20425;-74
2022/08/11 17:59:51;;;;;;;4.00;3.50;;;33.60;29.40;;;;;;5015325;28;21335;-74
2022/08/11 18:05:34;;;;;;;4.00;3.40;;;33.40;29.70;;;;;;5010922;28;20837;-74
